Terminal Aerodrome Forecast
Issued by NWS

Home | Current Version | Previous Version | Text Only | Print | Product List | Glossary On
Versions: 1 2 3 4 5 6 7 8 9 10 11 12 13 14 15 16 17 18 19 20 21 22
000
FTUS42 KFFC 061416 AAA
TAFRYY
TAF AMD
KRYY 061416Z 0614/0712 34004KT 6SM -SN SCT015 BKN025
     FM061500 03005KT P6SM BKN035
     FM061600 01005KT P6SM SCT040
     FM061900 32004KT P6SM SKC
     FM070000 32004KT P6SM SKC=

USA.gov is the U.S. government's official web portal to all federal, state and local government web resources and services.